Time;durP1;ratioP1;P1;durP2;ratioP2;P2;SDS_P1;SDS_P2;PMS_P1;PMS_P2;Temp;Humidity;BMP_temperature;BMP_pressure;BME280_temperature;BME280_humidity;BME280_pressure;Samples;Min_cycle;Max_cycle;Signal;HPM_P1;HPM_P2
2021/11/13 00:00:19;;;;;;;13.23;1.50;;;10.30;99.90;;;;;;4919996;29;20042;-92
2021/11/13 00:02:45;;;;;;;10.73;1.63;;;10.30;99.90;;;;;;4914176;29;20069;-94
2021/11/13 00:05:10;;;;;;;6.65;1.25;;;10.30;99.90;;;;;;4908189;29;20044;-92
2021/11/13 00:07:37;;;;;;;8.55;1.10;;;10.30;99.90;;;;;;4912958;29;20045;-94
2021/11/13 00:10:07;;;;;;;7.35;1.45;;;10.30;99.90;;;;;;4892159;29;20088;-95
2021/11/13 00:12:32;;;;;;;11.77;1.23;;;10.30;99.90;;;;;;4911394;29;20089;-93
2021/11/13 00:15:03;;;;;;;15.18;2.92;;;10.30;99.90;;;;;;4909257;29;20038;-96
2021/11/13 00:17:29;;;;;;;7.25;2.13;;;10.30;99.90;;;;;;4892375;29;20036;-96
2021/11/13 00:19:59;;;;;;;12.30;1.48;;;10.30;99.90;;;;;;4891632;29;20570;-95
2021/11/13 00:22:32;;;;;;;10.52;2.20;;;10.30;99.90;;;;;;4912121;29;20089;-94
2021/11/13 00:24:58;;;;;;;14.05;1.40;;;10.30;99.90;;;;;;4888592;29;20025;-96
2021/11/13 00:27:34;;;;;;;7.72;1.58;;;10.30;99.90;;;;;;4886947;29;20033;-94
2021/11/13 00:29:59;;;;;;;8.38;1.10;;;10.20;99.90;;;;;;4897058;29;20036;-93
2021/11/13 00:32:25;;;;;;;13.93;1.77;;;10.20;99.90;;;;;;4893658;29;20073;-89
2021/11/13 00:34:51;;;;;;;6.13;1.35;;;10.20;99.90;;;;;;4905352;29;20088;-90
2021/11/13 00:37:16;;;;;;;10.32;1.15;;;10.20;99.90;;;;;;4909168;29;20036;-90
2021/11/13 00:39:43;;;;;;;13.55;1.65;;;10.30;99.90;;;;;;4920645;29;20017;-91
2021/11/13 00:42:09;;;;;;;11.20;1.50;;;10.30;99.90;;;;;;4890093;29;20045;-88
2021/11/13 00:44:38;;;;;;;16.13;1.67;;;10.30;99.90;;;;;;4901129;29;20027;-91
2021/11/13 00:47:06;;;;;;;13.82;1.85;;;10.30;99.90;;;;;;4895355;29;20016;-92
2021/11/13 00:49:32;;;;;;;9.93;1.55;;;10.30;99.90;;;;;;4904216;29;20014;-90
2021/11/13 00:52:00;;;;;;;7.15;0.95;;;10.30;99.90;;;;;;4897948;29;20094;-90
2021/11/13 00:54:30;;;;;;;8.95;1.45;;;10.30;99.90;;;;;;4909644;29;20006;-92
2021/11/13 00:56:56;;;;;;;6.43;1.52;;;10.30;99.90;;;;;;4902545;29;20021;-91
2021/11/13 00:59:22;;;;;;;10.27;1.90;;;10.20;99.90;;;;;;4899118;29;20024;-93
2021/11/13 01:01:48;;;;;;;7.07;1.65;;;10.30;99.90;;;;;;4910703;29;20074;-93
2021/11/13 01:04:15;;;;;;;10.98;1.83;;;10.20;99.90;;;;;;4904677;29;20024;-93
2021/11/13 01:06:40;;;;;;;9.00;1.35;;;10.20;99.90;;;;;;4906259;29;20039;-96
2021/11/13 01:09:07;;;;;;;9.65;1.40;;;10.20;99.90;;;;;;4911471;29;20095;-93
2021/11/13 01:11:33;;;;;;;8.85;1.48;;;10.20;99.90;;;;;;4907215;29;20042;-95
2021/11/13 01:13:59;;;;;;;7.00;1.38;;;10.20;99.90;;;;;;4921250;29;20045;-96
2021/11/13 01:16:26;;;;;;;10.77;1.67;;;10.20;99.90;;;;;;4898353;29;20021;-95
2021/11/13 01:18:53;;;;;;;15.30;2.08;;;10.10;99.90;;;;;;4883511;29;20056;-94
2021/11/13 01:21:20;;;;;;;12.93;1.65;;;10.10;99.90;;;;;;4875662;29;20048;-95
2021/11/13 01:23:46;;;;;;;12.00;1.50;;;10.10;99.90;;;;;;4876561;29;20049;-96
2021/11/13 01:26:12;;;;;;;9.52;1.65;;;10.10;99.90;;;;;;4874493;29;20029;-95
2021/11/13 01:28:37;;;;;;;7.97;1.52;;;10.10;99.90;;;;;;4881552;29;20056;-94
2021/11/13 01:31:06;;;;;;;8.32;1.40;;;10.10;99.90;;;;;;4909247;29;20502;-94
2021/11/13 01:33:36;;;;;;;7.10;1.48;;;10.10;99.90;;;;;;4869127;29;20037;-96
2021/11/13 01:36:03;;;;;;;13.18;1.48;;;10.10;99.90;;;;;;4868804;29;20026;-96
2021/11/13 01:38:29;;;;;;;11.10;1.75;;;10.10;99.90;;;;;;4867967;29;20544;-94
2021/11/13 01:40:55;;;;;;;13.60;1.88;;;10.10;99.90;;;;;;4871102;29;20025;-95
2021/11/13 01:43:21;;;;;;;12.20;1.60;;;10.10;99.90;;;;;;4869598;29;20085;-96
2021/11/13 01:45:47;;;;;;;10.50;1.60;;;10.10;99.90;;;;;;4874121;29;20025;-95
2021/11/13 01:48:12;;;;;;;15.68;1.75;;;10.10;99.90;;;;;;4905344;29;20064;-96
2021/11/13 01:50:41;;;;;;;11.95;1.60;;;10.10;99.90;;;;;;4875644;29;20025;-95
2021/11/13 01:53:08;;;;;;;10.52;1.10;;;10.00;99.90;;;;;;4910690;29;20067;-95
2021/11/13 01:55:36;;;;;;;7.65;1.77;;;10.10;99.90;;;;;;4880905;29;20029;-96
2021/11/13 01:58:05;;;;;;;9.38;1.40;;;10.10;99.90;;;;;;4881579;29;20060;-95
2021/11/13 02:00:45;;;;;;;9.95;1.10;;;10.10;99.90;;;;;;4899318;29;20033;-95
2021/11/13 02:03:13;;;;;;;10.20;1.27;;;10.10;99.90;;;;;;4912186;29;20021;-92
2021/11/13 02:05:41;;;;;;;8.38;1.70;;;10.10;99.90;;;;;;4899902;29;20080;-95
2021/11/13 02:08:07;;;;;;;7.85;1.42;;;10.10;99.90;;;;;;4881133;29;20075;-95
2021/11/13 02:10:41;;;;;;;13.50;1.30;;;10.10;99.90;;;;;;4893703;29;20118;-92
2021/11/13 02:13:07;;;;;;;14.10;1.38;;;10.10;99.90;;;;;;4890756;29;20040;-95
2021/11/13 02:15:33;;;;;;;15.85;1.27;;;10.10;99.90;;;;;;4886644;29;20060;-96
2021/11/13 02:18:00;;;;;;;8.88;1.48;;;10.20;99.90;;;;;;4874754;29;20645;-94
2021/11/13 02:20:35;;;;;;;7.03;1.00;;;10.10;99.90;;;;;;4873955;29;20029;-95
2021/11/13 02:23:09;;;;;;;11.23;1.25;;;10.20;99.90;;;;;;4877099;29;20024;-95
2021/11/13 02:25:35;;;;;;;9.60;1.30;;;10.10;99.90;;;;;;4879791;29;20120;-94
2021/11/13 02:28:01;;;;;;;4.57;0.88;;;10.10;99.90;;;;;;4877021;29;20035;-95
2021/11/13 02:30:28;;;;;;;6.85;1.20;;;10.10;99.90;;;;;;4879804;29;20033;-96
2021/11/13 02:32:55;;;;;;;9.13;1.65;;;10.10;99.90;;;;;;4876070;29;20029;-95
2021/11/13 02:35:23;;;;;;;9.02;1.20;;;10.10;99.90;;;;;;4891281;29;20028;-92
2021/11/13 02:37:49;;;;;;;12.20;1.58;;;10.10;99.90;;;;;;4899197;29;20047;-94
2021/11/13 02:40:17;;;;;;;11.90;1.40;;;10.10;99.90;;;;;;4870905;29;20021;-94
2021/11/13 02:42:44;;;;;;;12.52;1.48;;;10.00;99.90;;;;;;4876635;29;20078;-94
2021/11/13 02:45:12;;;;;;;10.07;1.40;;;10.10;99.90;;;;;;4879696;29;20088;-93
2021/11/13 02:47:44;;;;;;;11.00;3.08;;;10.00;99.90;;;;;;4878137;29;20115;-94
2021/11/13 02:50:12;;;;;;;8.50;1.70;;;10.00;99.90;;;;;;4891256;29;20021;-94
2021/11/13 02:53:09;;;;;;;9.52;1.48;;;10.00;99.90;;;;;;4875076;29;20048;-94
2021/11/13 02:55:35;;;;;;;10.18;1.65;;;10.00;99.90;;;;;;4875686;29;20116;-94
2021/11/13 02:58:01;;;;;;;14.15;2.35;;;10.00;99.90;;;;;;4875066;29;20048;-94
2021/11/13 03:00:28;;;;;;;13.15;2.33;;;10.00;99.90;;;;;;4879320;29;20057;-94
2021/11/13 03:02:55;;;;;;;14.88;1.95;;;10.00;99.90;;;;;;4876483;29;20021;-94
2021/11/13 03:05:29;;;;;;;8.20;1.02;;;10.00;99.90;;;;;;4878221;29;20029;-93
2021/11/13 03:07:58;;;;;;;15.48;2.67;;;10.00;99.90;;;;;;4893365;29;20029;-95
2021/11/13 03:10:27;;;;;;;10.50;1.30;;;10.00;99.90;;;;;;4874585;29;20021;-94
2021/11/13 03:12:53;;;;;;;10.65;1.58;;;10.00;99.90;;;;;;4872230;29;20173;-95
2021/11/13 03:15:20;;;;;;;15.93;2.35;;;10.00;99.90;;;;;;4870577;29;20025;-95
2021/11/13 03:17:47;;;;;;;15.50;1.83;;;10.00;99.90;;;;;;4872866;29;20052;-95
2021/11/13 03:20:17;;;;;;;11.52;1.35;;;10.00;99.90;;;;;;4871810;29;20029;-95
2021/11/13 03:22:43;;;;;;;20.55;2.08;;;10.00;99.90;;;;;;4871244;29;20029;-94
2021/11/13 03:25:13;;;;;;;10.68;2.00;;;10.00;99.90;;;;;;4872777;29;20116;-96
2021/11/13 03:27:42;;;;;;;15.05;1.58;;;10.00;99.90;;;;;;4870789;29;20036;-95
2021/11/13 03:30:08;;;;;;;14.57;2.23;;;10.00;99.90;;;;;;4888754;29;20029;-95
2021/11/13 03:32:35;;;;;;;14.05;1.73;;;10.00;99.90;;;;;;4871627;29;20292;-91
2021/11/13 03:35:02;;;;;;;11.60;1.38;;;10.00;99.90;;;;;;4872514;29;20515;-94
2021/11/13 03:37:29;;;;;;;8.50;1.40;;;10.00;99.90;;;;;;4871411;29;20136;-95
2021/11/13 03:39:54;;;;;;;13.38;1.58;;;10.00;99.90;;;;;;4890123;29;20052;-95
2021/11/13 03:42:20;;;;;;;12.15;1.63;;;10.00;99.90;;;;;;4870922;29;20474;-94
2021/11/13 03:44:46;;;;;;;14.18;2.00;;;10.00;99.90;;;;;;4873627;29;20459;-94
2021/11/13 03:47:12;;;;;;;19.30;1.58;;;10.00;99.90;;;;;;4875058;29;20063;-95
2021/11/13 03:49:37;;;;;;;9.60;1.20;;;10.00;99.90;;;;;;4871921;29;20399;-94
2021/11/13 03:52:04;;;;;;;10.57;1.63;;;10.00;99.90;;;;;;4873170;29;20041;-94
2021/11/13 03:54:31;;;;;;;13.45;1.40;;;10.00;99.90;;;;;;4869766;29;20073;-95
2021/11/13 03:56:57;;;;;;;19.60;1.58;;;9.90;99.90;;;;;;4881986;29;20041;-95
2021/11/13 03:59:25;;;;;;;7.68;1.40;;;9.90;99.90;;;;;;4873194;29;20093;-95
2021/11/13 04:01:51;;;;;;;8.68;1.70;;;9.90;99.90;;;;;;4872624;29;20017;-94
2021/11/13 04:04:17;;;;;;;11.43;1.38;;;9.90;99.90;;;;;;4874815;29;20031;-94
2021/11/13 04:06:42;;;;;;;9.52;1.20;;;9.90;99.90;;;;;;4876364;29;20033;-95
2021/11/13 04:09:09;;;;;;;8.93;1.20;;;10.00;99.90;;;;;;4881100;29;20029;-96
2021/11/13 04:11:35;;;;;;;9.40;1.40;;;9.90;99.90;;;;;;4879336;29;20048;-95
2021/11/13 04:14:00;;;;;;;6.82;1.20;;;9.90;99.90;;;;;;4895008;29;20052;-95
2021/11/13 04:16:27;;;;;;;11.77;1.30;;;9.90;99.90;;;;;;4878119;29;20088;-94
2021/11/13 04:18:53;;;;;;;13.10;1.73;;;9.90;99.90;;;;;;4876339;29;20088;-95
2021/11/13 04:21:19;;;;;;;12.07;1.80;;;9.90;99.90;;;;;;4878727;29;20029;-96
2021/11/13 04:23:45;;;;;;;11.10;2.05;;;9.90;99.90;;;;;;4877221;29;20020;-96
2021/11/13 04:26:11;;;;;;;19.35;3.17;;;9.90;99.90;;;;;;4879526;29;20505;-95
2021/11/13 04:28:37;;;;;;;19.02;2.25;;;9.90;99.90;;;;;;4877296;29;20029;-95
2021/11/13 04:31:03;;;;;;;16.90;1.77;;;9.90;99.90;;;;;;4894569;29;20044;-96
2021/11/13 04:33:31;;;;;;;16.80;2.60;;;9.90;99.90;;;;;;4881977;29;20127;-96
2021/11/13 04:38:31;;;;;;;11.05;1.35;;;9.90;99.90;;;;;;4892979;29;20081;-95
2021/11/13 04:40:57;;;;;;;13.35;1.80;;;9.90;99.90;;;;;;4878326;29;20029;-95
2021/11/13 04:43:23;;;;;;;15.35;2.20;;;9.90;99.90;;;;;;4876043;29;20478;-96
2021/11/13 04:45:49;;;;;;;14.82;2.20;;;9.90;99.90;;;;;;4890775;29;20112;-96
2021/11/13 04:48:14;;;;;;;10.43;2.38;;;9.90;99.90;;;;;;4879582;29;20035;-95
2021/11/13 04:50:40;;;;;;;10.20;1.80;;;9.90;99.90;;;;;;4874002;29;20029;-95
2021/11/13 04:53:06;;;;;;;12.32;2.47;;;9.90;99.90;;;;;;4876383;29;20047;-96
2021/11/13 04:55:32;;;;;;;12.38;1.52;;;9.90;99.90;;;;;;4876343;29;20024;-96
2021/11/13 04:57:59;;;;;;;12.73;1.85;;;9.90;99.90;;;;;;4895578;29;20494;-94
2021/11/13 05:00:27;;;;;;;20.85;2.50;;;9.90;99.90;;;;;;4894840;29;20016;-96
2021/11/13 05:02:54;;;;;;;16.55;2.25;;;9.90;99.90;;;;;;4890118;29;20037;-95
2021/11/13 05:05:20;;;;;;;14.40;2.28;;;9.90;99.90;;;;;;4875533;29;20044;-94
2021/11/13 05:07:46;;;;;;;14.77;1.88;;;9.90;99.90;;;;;;4876916;29;20047;-95
2021/11/13 05:10:14;;;;;;;15.80;1.70;;;9.90;99.90;;;;;;4875215;29;20513;-94
2021/11/13 05:12:40;;;;;;;7.78;1.63;;;9.80;99.90;;;;;;4874371;29;20041;-95
2021/11/13 05:15:07;;;;;;;10.98;2.10;;;9.80;99.90;;;;;;4876577;29;20085;-96
2021/11/13 05:17:32;;;;;;;13.57;1.63;;;9.80;99.90;;;;;;4874403;29;20143;-96
2021/11/13 05:19:58;;;;;;;14.73;2.03;;;9.80;99.90;;;;;;4876532;29;20062;-95
2021/11/13 05:22:24;;;;;;;13.52;2.00;;;9.80;99.90;;;;;;4876773;29;20032;-96
2021/11/13 05:24:50;;;;;;;10.32;1.67;;;9.80;99.90;;;;;;4877067;29;20035;-95
2021/11/13 05:27:15;;;;;;;9.25;1.70;;;9.80;99.90;;;;;;4893876;29;20040;-95
2021/11/13 05:29:41;;;;;;;14.15;1.63;;;9.80;99.90;;;;;;4876537;29;20029;-95
2021/11/13 05:32:08;;;;;;;8.82;1.92;;;9.80;99.90;;;;;;4878384;29;20037;-93
2021/11/13 05:34:34;;;;;;;13.30;1.65;;;9.80;99.90;;;;;;4876852;29;20017;-96
2021/11/13 05:37:00;;;;;;;11.45;2.17;;;9.90;99.90;;;;;;4877782;29;20096;-95
2021/11/13 05:39:26;;;;;;;13.63;2.10;;;9.90;99.90;;;;;;4878951;29;20028;-94
2021/11/13 05:41:51;;;;;;;12.85;1.73;;;9.90;99.90;;;;;;4877662;29;20021;-95
2021/11/13 05:44:17;;;;;;;12.52;1.92;;;9.90;99.90;;;;;;4884216;29;20037;-95
2021/11/13 05:46:43;;;;;;;16.17;1.92;;;9.90;99.90;;;;;;4883694;29;20032;-93
2021/11/13 05:49:09;;;;;;;12.35;1.80;;;9.90;99.90;;;;;;4889545;29;20126;-94
2021/11/13 05:51:35;;;;;;;14.15;1.92;;;9.90;99.90;;;;;;4886549;29;20029;-96
2021/11/13 05:54:01;;;;;;;15.73;2.17;;;9.90;99.90;;;;;;4878911;29;20040;-94
2021/11/13 05:56:27;;;;;;;11.05;2.47;;;9.90;99.90;;;;;;4885376;29;20025;-95
2021/11/13 05:58:52;;;;;;;14.15;1.90;;;9.90;99.90;;;;;;4887826;29;20032;-93
2021/11/13 06:01:20;;;;;;;11.63;1.63;;;10.00;99.90;;;;;;4894367;29;20016;-89
2021/11/13 06:03:47;;;;;;;17.90;2.05;;;10.00;99.90;;;;;;4895887;29;20044;-88
2021/11/13 06:06:12;;;;;;;9.68;1.95;;;9.90;99.90;;;;;;4897487;29;20019;-90
2021/11/13 06:08:39;;;;;;;14.82;2.40;;;10.00;99.90;;;;;;4897597;29;20021;-89
2021/11/13 06:11:05;;;;;;;11.85;2.42;;;9.90;99.90;;;;;;4896217;29;20017;-91
2021/11/13 06:13:31;;;;;;;14.23;2.33;;;9.90;99.90;;;;;;4895849;29;20040;-92
2021/11/13 06:15:56;;;;;;;15.52;1.98;;;9.90;99.90;;;;;;4893908;29;20024;-92
2021/11/13 06:18:22;;;;;;;17.38;3.30;;;9.90;99.90;;;;;;4911825;29;20044;-91
2021/11/13 06:20:48;;;;;;;14.77;2.67;;;9.90;99.90;;;;;;4911296;29;20040;-93
2021/11/13 06:23:13;;;;;;;9.73;1.70;;;9.90;99.90;;;;;;4895340;29;20084;-90
2021/11/13 06:25:39;;;;;;;21.80;2.25;;;9.90;99.90;;;;;;4913256;29;20033;-92
2021/11/13 06:28:05;;;;;;;16.83;2.38;;;9.90;99.90;;;;;;4896817;29;20032;-93
2021/11/13 06:30:30;;;;;;;14.05;2.00;;;9.90;99.90;;;;;;4912626;29;20025;-92
2021/11/13 06:32:56;;;;;;;19.45;2.47;;;9.90;99.90;;;;;;4915360;29;20048;-90
2021/11/13 06:35:22;;;;;;;13.55;1.80;;;9.80;99.90;;;;;;4895495;29;20040;-91
2021/11/13 06:37:48;;;;;;;16.77;2.13;;;9.80;99.90;;;;;;4908290;29;20021;-90
2021/11/13 06:40:18;;;;;;;14.05;2.20;;;9.80;99.90;;;;;;4896959;29;20019;-90
2021/11/13 06:42:43;;;;;;;11.82;1.80;;;9.80;99.90;;;;;;4912767;29;20033;-95
2021/11/13 06:45:11;;;;;;;14.27;1.67;;;9.80;99.90;;;;;;4898218;29;20009;-93
2021/11/13 06:47:37;;;;;;;10.50;2.50;;;9.80;99.90;;;;;;4895976;29;20029;-88
2021/11/13 06:50:05;;;;;;;14.07;3.05;;;9.80;99.90;;;;;;4898342;29;20019;-90
2021/11/13 06:52:30;;;;;;;14.20;2.13;;;9.80;99.90;;;;;;4898157;29;20063;-91
2021/11/13 06:54:56;;;;;;;15.68;2.13;;;9.80;99.90;;;;;;4919192;29;20037;-91
2021/11/13 06:57:25;;;;;;;10.02;1.75;;;9.70;99.90;;;;;;4919674;29;20005;-88
2021/11/13 06:59:51;;;;;;;12.43;2.38;;;9.80;99.90;;;;;;4919607;29;20017;-88
2021/11/13 07:02:16;;;;;;;10.77;1.90;;;9.80;99.90;;;;;;4908481;29;20032;-88
2021/11/13 07:04:42;;;;;;;16.33;2.30;;;9.80;99.90;;;;;;4913692;29;20009;-87
2021/11/13 07:07:08;;;;;;;14.30;2.28;;;9.70;99.90;;;;;;4917244;29;20028;-87
2021/11/13 07:09:34;;;;;;;15.18;2.50;;;9.70;99.90;;;;;;4909124;29;20009;-89
2021/11/13 07:12:00;;;;;;;11.32;2.42;;;9.70;99.90;;;;;;4917159;29;20040;-88
2021/11/13 07:14:27;;;;;;;18.30;3.28;;;9.70;99.90;;;;;;4897295;29;20023;-88
2021/11/13 07:16:52;;;;;;;12.52;2.10;;;9.70;99.90;;;;;;4919834;29;20066;-88
2021/11/13 07:19:18;;;;;;;11.13;1.90;;;9.70;99.90;;;;;;4919579;29;20108;-89
2021/11/13 07:21:44;;;;;;;13.55;2.30;;;9.70;99.90;;;;;;4904024;29;20029;-88
2021/11/13 07:24:10;;;;;;;9.80;1.88;;;9.70;99.90;;;;;;4903192;29;20152;-90
2021/11/13 07:26:38;;;;;;;10.27;1.92;;;9.70;99.90;;;;;;4903683;29;20048;-91
2021/11/13 07:29:06;;;;;;;13.52;1.98;;;9.70;99.90;;;;;;4903989;29;20028;-89
2021/11/13 07:31:32;;;;;;;13.98;1.95;;;9.70;99.90;;;;;;4919846;29;20008;-90
2021/11/13 07:33:58;;;;;;;16.05;2.17;;;9.70;99.90;;;;;;4903922;29;20020;-89
2021/11/13 07:36:25;;;;;;;17.52;3.42;;;9.70;99.90;;;;;;4903519;29;20008;-88
2021/11/13 07:38:51;;;;;;;16.35;1.75;;;9.70;99.90;;;;;;4903940;29;20020;-89
2021/11/13 07:41:19;;;;;;;10.32;2.08;;;9.70;99.90;;;;;;4903455;29;20013;-90
2021/11/13 07:43:45;;;;;;;12.43;1.70;;;9.70;99.90;;;;;;4903408;29;20017;-87
2021/11/13 07:46:11;;;;;;;8.65;1.45;;;9.70;99.90;;;;;;4903983;29;20013;-92
2021/11/13 07:48:37;;;;;;;14.43;2.00;;;9.70;99.90;;;;;;4904505;29;20110;-92
2021/11/13 07:51:04;;;;;;;11.88;1.90;;;9.70;99.90;;;;;;4904186;29;20103;-89
2021/11/13 07:53:30;;;;;;;7.55;1.48;;;9.70;99.90;;;;;;4904770;29;20033;-89
2021/11/13 07:55:55;;;;;;;14.07;1.73;;;9.70;99.90;;;;;;4909347;29;20023;-87
2021/11/13 07:58:21;;;;;;;13.82;2.17;;;9.70;99.90;;;;;;4925569;29;20032;-95
2021/11/13 08:00:49;;;;;;;7.25;1.70;;;9.70;99.90;;;;;;4903420;29;20058;-91
2021/11/13 08:03:15;;;;;;;12.23;2.35;;;9.80;99.90;;;;;;4906402;29;20040;-94
2021/11/13 08:05:41;;;;;;;8.55;2.33;;;9.80;99.90;;;;;;4910437;29;20069;-94
2021/11/13 08:08:08;;;;;;;16.10;2.97;;;9.80;99.90;;;;;;4901930;29;20029;-87
2021/11/13 08:10:41;;;;;;;8.63;2.20;;;9.80;99.90;;;;;;4903742;29;20032;-95
2021/11/13 08:13:15;;;;;;;13.77;1.95;;;9.80;99.90;;;;;;4919553;29;20036;-87
2021/11/13 08:15:41;;;;;;;10.13;1.77;;;9.80;99.90;;;;;;4914406;29;20024;-88
2021/11/13 08:18:10;;;;;;;8.18;1.75;;;9.80;99.90;;;;;;4906064;29;20075;-87
2021/11/13 08:20:38;;;;;;;14.50;1.92;;;9.80;99.90;;;;;;4924728;29;20036;-89
2021/11/13 08:23:08;;;;;;;11.80;1.73;;;9.80;99.90;;;;;;4924308;29;20024;-89
2021/11/13 08:25:34;;;;;;;12.48;2.42;;;9.80;99.90;;;;;;4908295;29;20048;-87
2021/11/13 08:28:00;;;;;;;12.38;2.03;;;9.80;99.90;;;;;;4923680;29;20020;-89
2021/11/13 08:30:29;;;;;;;14.40;2.28;;;9.90;99.90;;;;;;4902190;29;20040;-92
2021/11/13 08:32:56;;;;;;;16.25;2.38;;;9.80;99.90;;;;;;4919890;29;20051;-95
2021/11/13 08:35:22;;;;;;;14.23;2.10;;;9.90;99.90;;;;;;4907764;29;20101;-96
2021/11/13 08:37:47;;;;;;;9.20;1.88;;;9.90;99.90;;;;;;4907484;29;20029;-94
2021/11/13 08:40:15;;;;;;;4.55;1.30;;;9.90;99.90;;;;;;4892161;29;20056;-93
2021/11/13 08:42:41;;;;;;;14.88;2.08;;;9.90;99.90;;;;;;4893174;29;20056;-96
2021/11/13 08:45:08;;;;;;;9.50;1.73;;;9.90;99.90;;;;;;4894389;29;20116;-94
2021/11/13 08:47:35;;;;;;;10.27;2.00;;;9.90;99.90;;;;;;4911946;29;20047;-96
2021/11/13 08:50:03;;;;;;;12.70;1.67;;;9.90;99.90;;;;;;4895117;29;20028;-94
2021/11/13 08:52:28;;;;;;;11.35;2.20;;;10.00;99.90;;;;;;4910739;29;20068;-96
2021/11/13 08:54:54;;;;;;;17.70;2.10;;;10.00;99.90;;;;;;4895391;29;20036;-95
2021/11/13 08:57:20;;;;;;;15.93;2.13;;;10.00;99.90;;;;;;4892532;29;20035;-96
2021/11/13 08:59:46;;;;;;;9.13;2.10;;;10.00;99.90;;;;;;4889306;29;20032;-96
2021/11/13 09:02:19;;;;;;;12.05;2.55;;;10.00;99.90;;;;;;4888893;29;20029;-96
2021/11/13 09:04:47;;;;;;;14.45;2.20;;;10.00;99.90;;;;;;4886556;29;20053;-94
2021/11/13 09:07:13;;;;;;;14.85;2.38;;;10.00;99.90;;;;;;4887729;29;20028;-94
2021/11/13 09:09:40;;;;;;;10.07;2.60;;;10.00;99.90;;;;;;4894653;29;20131;-94
2021/11/13 09:12:09;;;;;;;9.70;1.65;;;10.00;99.90;;;;;;4896531;29;20513;-93
2021/11/13 09:14:35;;;;;;;19.00;3.53;;;10.10;99.90;;;;;;4909572;29;20089;-96
2021/11/13 09:17:02;;;;;;;14.55;2.40;;;10.10;99.90;;;;;;4903973;29;20036;-95
2021/11/13 09:19:28;;;;;;;9.63;2.20;;;10.10;99.90;;;;;;4887143;29;20104;-96
2021/11/13 09:21:54;;;;;;;11.52;1.65;;;10.20;99.90;;;;;;4888490;29;20460;-96
2021/11/13 09:24:21;;;;;;;16.55;2.42;;;10.20;99.90;;;;;;4887525;29;20032;-96
2021/11/13 09:26:47;;;;;;;10.40;2.70;;;10.20;99.90;;;;;;4904208;29;20036;-93
2021/11/13 09:29:14;;;;;;;6.03;1.27;;;10.30;99.90;;;;;;4887861;29;20029;-95
2021/11/13 09:31:42;;;;;;;8.25;2.15;;;10.30;99.90;;;;;;4886984;29;20041;-94
2021/11/13 09:34:12;;;;;;;8.93;1.73;;;10.30;99.90;;;;;;4886591;29;20071;-96
2021/11/13 09:36:38;;;;;;;9.15;1.85;;;10.40;99.90;;;;;;4886690;29;20467;-96
2021/11/13 09:39:04;;;;;;;8.15;1.65;;;10.40;99.90;;;;;;4886970;29;20069;-96
2021/11/13 09:41:30;;;;;;;10.85;1.60;;;10.50;99.90;;;;;;4886920;29;20450;-94
2021/11/13 09:43:56;;;;;;;6.93;1.50;;;10.40;99.90;;;;;;4896925;29;20032;-94
2021/11/13 09:46:23;;;;;;;11.15;1.45;;;10.40;99.90;;;;;;4896486;29;20060;-96
2021/11/13 09:48:53;;;;;;;14.20;1.73;;;10.40;99.90;;;;;;4894894;29;20029;-96
2021/11/13 09:51:22;;;;;;;11.38;1.83;;;10.40;99.90;;;;;;4891563;29;20517;-92
2021/11/13 09:53:48;;;;;;;12.35;1.80;;;10.40;99.90;;;;;;4903183;29;20038;-95
2021/11/13 09:56:14;;;;;;;7.10;1.65;;;10.50;99.90;;;;;;4886580;29;20024;-94
2021/11/13 09:58:41;;;;;;;9.55;1.60;;;10.60;99.90;;;;;;4903323;29;20057;-96
2021/11/13 10:01:07;;;;;;;5.55;1.40;;;11.00;99.90;;;;;;4902265;29;20036;-96
2021/11/13 10:03:33;;;;;;;7.28;2.00;;;11.40;99.90;;;;;;4887723;29;20024;-93
2021/11/13 10:06:09;;;;;;;8.82;2.10;;;11.70;99.90;;;;;;4887395;29;20071;-96
2021/11/13 10:08:35;;;;;;;9.40;1.40;;;12.10;99.90;;;;;;4903057;29;20147;-96
2021/11/13 10:11:05;;;;;;;6.47;1.45;;;12.50;99.90;;;;;;4886151;29;20032;-94
2021/11/13 10:13:34;;;;;;;8.53;1.33;;;13.00;99.90;;;;;;4887271;29;20041;-96
2021/11/13 10:16:04;;;;;;;5.95;1.73;;;13.30;99.90;;;;;;4904436;29;20328;-95
2021/11/13 10:18:33;;;;;;;8.48;1.67;;;13.60;99.90;;;;;;4890551;29;20060;-96
2021/11/13 10:21:04;;;;;;;7.03;1.67;;;13.80;99.90;;;;;;4906540;29;20219;-95
2021/11/13 10:23:29;;;;;;;;;;;14.00;99.90;;;;;;4890405;29;20028;-95
2021/11/13 10:25:56;;;;;;;7.15;1.20;;;14.30;99.90;;;;;;4887524;29;19914;-94
2021/11/13 10:28:21;;;;;;;7.07;1.40;;;14.50;99.90;;;;;;4893345;29;20037;-95
2021/11/13 10:30:47;;;;;;;8.63;1.83;;;14.70;99.90;;;;;;4891038;29;20037;-94
2021/11/13 10:33:13;;;;;;;7.07;1.10;;;14.90;99.90;;;;;;4907863;29;20037;-95
2021/11/13 10:35:49;;;;;;;5.93;1.27;;;15.10;99.90;;;;;;4885625;29;20034;-96
2021/11/13 10:38:18;;;;;;;5.80;1.00;;;15.20;99.90;;;;;;4886017;29;20029;-93
2021/11/13 10:40:55;;;;;;;4.03;0.93;;;15.10;99.90;;;;;;4907030;29;20032;-95
2021/11/13 10:43:38;;;;;;;7.82;1.30;;;14.90;99.90;;;;;;4913298;29;20081;-96
2021/11/13 10:46:08;;;;;;;4.68;1.00;;;14.80;99.90;;;;;;4893282;29;20032;-94
2021/11/13 10:48:56;;;;;;;4.57;1.55;;;14.90;99.90;;;;;;4894840;29;20037;-95
2021/11/13 10:51:31;;;;;;;3.75;1.10;;;14.90;99.90;;;;;;4873225;29;20110;-94
2021/11/13 10:54:06;;;;;;;6.38;1.35;;;14.90;99.90;;;;;;4874760;29;20304;-96
2021/11/13 10:56:36;;;;;;;4.28;0.85;;;14.90;99.90;;;;;;4897748;29;20021;-93
2021/11/13 10:59:04;;;;;;;3.40;1.08;;;14.90;99.90;;;;;;4900620;29;20025;-95
2021/11/13 11:01:35;;;;;;;4.70;1.00;;;15.00;99.90;;;;;;4883613;29;20029;-93
2021/11/13 11:04:20;;;;;;;4.10;1.10;;;15.10;99.90;;;;;;4900492;29;20033;-93
2021/11/13 11:06:53;;;;;;;6.90;0.90;;;15.30;99.90;;;;;;4881787;29;20041;-96
2021/11/13 11:09:30;;;;;;;5.75;1.20;;;15.50;99.90;;;;;;4878444;29;20021;-95
2021/11/13 11:12:11;;;;;;;4.75;0.77;;;15.90;99.90;;;;;;4895534;29;20045;-95
2021/11/13 11:14:47;;;;;;;3.67;0.98;;;16.30;99.70;;;;;;4893628;29;20048;-96
2021/11/13 11:17:16;;;;;;;5.30;1.65;;;16.80;98.10;;;;;;4911471;29;20039;-95
2021/11/13 11:19:47;;;;;;;4.38;1.23;;;16.90;96.80;;;;;;4906727;29;20119;-93
2021/11/13 11:22:17;;;;;;;6.80;1.30;;;17.10;96.40;;;;;;4920933;29;20016;-95
2021/11/13 11:24:49;;;;;;;5.38;1.17;;;17.40;95.30;;;;;;4901527;29;20052;-93
2021/11/13 11:27:21;;;;;;;6.38;1.35;;;17.70;94.40;;;;;;4925170;29;20028;-96
2021/11/13 11:29:56;;;;;;;5.03;1.10;;;17.70;93.10;;;;;;4905959;29;20048;-95
2021/11/13 11:32:29;;;;;;;3.38;1.13;;;17.70;92.40;;;;;;4920659;29;20037;-91
2021/11/13 11:34:58;;;;;;;4.20;0.90;;;17.60;92.20;;;;;;4925948;29;20028;-95
2021/11/13 11:37:25;;;;;;;4.15;1.00;;;17.50;92.10;;;;;;4908491;29;20049;-94
2021/11/13 11:39:58;;;;;;;7.20;1.35;;;17.70;92.20;;;;;;4920579;29;20073;-92
2021/11/13 11:42:25;;;;;;;7.95;1.10;;;17.90;91.60;;;;;;4886898;29;20029;-95
2021/11/13 11:44:53;;;;;;;3.67;1.30;;;18.00;91.00;;;;;;4890253;29;20032;-95
2021/11/13 11:47:21;;;;;;;2.33;0.75;;;18.00;90.50;;;;;;4888209;29;20029;-94
2021/11/13 11:49:54;;;;;;;4.82;1.60;;;17.80;90.20;;;;;;4887902;29;20050;-95
2021/11/13 11:52:23;;;;;;;3.88;1.33;;;17.70;90.30;;;;;;4882030;29;20063;-94
2021/11/13 11:54:50;;;;;;;4.03;1.05;;;17.70;90.10;;;;;;4881958;29;20024;-96
2021/11/13 11:57:35;;;;;;;2.85;1.20;;;17.60;89.80;;;;;;4886630;29;20599;-90
2021/11/13 12:00:16;;;;;;;3.08;0.93;;;17.40;89.60;;;;;;4885920;29;20013;-95
2021/11/13 12:02:51;;;;;;;2.88;0.90;;;17.10;89.20;;;;;;4888443;29;20025;-95
2021/11/13 12:05:22;;;;;;;2.40;1.50;;;16.90;89.70;;;;;;4864819;29;20253;-96
2021/11/13 12:07:50;;;;;;;3.35;1.20;;;16.80;90.00;;;;;;4866081;29;20048;-94
2021/11/13 12:10:32;;;;;;;2.55;0.73;;;16.60;90.00;;;;;;4865451;29;20029;-95
2021/11/13 12:13:06;;;;;;;2.72;0.90;;;16.70;89.50;;;;;;4866947;29;20048;-95
2021/11/13 12:15:49;;;;;;;3.47;0.95;;;16.90;89.10;;;;;;4879559;29;20046;-93
2021/11/13 12:18:27;;;;;;;3.67;2.63;;;17.20;88.30;;;;;;4882535;29;20097;-96
2021/11/13 12:21:04;;;;;;;3.28;0.90;;;17.60;86.90;;;;;;4874657;29;20054;-94
2021/11/13 12:23:34;;;;;;;5.50;1.10;;;17.90;85.40;;;;;;4890883;29;20096;-94
2021/11/13 12:26:07;;;;;;;3.38;0.88;;;18.10;84.10;;;;;;4888917;29;20028;-96
2021/11/13 12:28:54;;;;;;;2.00;0.73;;;18.00;83.80;;;;;;4903236;29;20044;-92
2021/11/13 12:31:41;;;;;;;1.08;0.60;;;17.80;83.00;;;;;;4903132;29;20034;-95
2021/11/13 12:34:16;;;;;;;4.95;0.90;;;17.50;83.60;;;;;;4889016;29;20055;-96
2021/11/13 12:37:08;;;;;;;1.52;0.52;;;17.30;83.60;;;;;;4910119;29;20052;-95
2021/11/13 12:39:42;;;;;;;2.08;0.60;;;17.30;83.90;;;;;;4903189;29;20032;-94
2021/11/13 12:42:10;;;;;;;3.20;0.80;;;17.60;83.50;;;;;;4908315;29;20032;-95
2021/11/13 12:44:41;;;;;;;2.17;0.60;;;17.80;82.40;;;;;;4895981;29;20085;-94
2021/11/13 12:47:10;;;;;;;1.02;0.55;;;17.80;80.80;;;;;;4896236;29;20031;-93
2021/11/13 12:49:38;;;;;;;1.38;0.68;;;17.70;80.30;;;;;;4911216;29;20032;-96
2021/11/13 12:52:12;;;;;;;4.75;0.77;;;17.60;80.10;;;;;;4901252;29;20075;-93